createdAt,value
2023-02-14T00:01:45.978Z,1.95
2023-02-14T00:04:15.106Z,2.41
2023-02-14T00:06:43.808Z,2.37
2023-02-14T00:09:14.293Z,2.61
2023-02-14T00:11:43.041Z,2.51
2023-02-14T00:14:31.037Z,2.67
2023-02-14T00:16:59.501Z,3.00
2023-02-14T00:19:27.778Z,3.11
2023-02-14T00:21:55.867Z,3.36
2023-02-14T00:24:26.709Z,3.68
2023-02-14T00:26:55.029Z,3.34
2023-02-14T00:29:29.036Z,3.46
2023-02-14T00:31:57.855Z,3.68
2023-02-14T00:34:26.816Z,3.56
2023-02-14T00:36:54.975Z,3.60
2023-02-14T00:39:23.552Z,3.73
2023-02-14T00:41:52.189Z,3.62
2023-02-14T00:44:20.261Z,3.91
2023-02-14T00:46:48.635Z,3.72
2023-02-14T00:49:16.802Z,3.98
2023-02-14T00:51:44.843Z,4.35
2023-02-14T00:54:13.212Z,4.07
2023-02-14T00:56:41.396Z,3.72
2023-02-14T00:59:10.512Z,3.96
2023-02-14T01:01:39.754Z,4.11
2023-02-14T01:04:08.181Z,3.75
2023-02-14T01:06:36.373Z,3.65
2023-02-14T01:09:05.430Z,3.85
2023-02-14T01:11:34.042Z,3.77
2023-02-14T01:14:02.283Z,3.99
2023-02-14T01:16:31.293Z,4.16
2023-02-14T01:19:01.146Z,3.99
2023-02-14T01:21:32.013Z,3.69
2023-02-14T01:24:03.374Z,3.90
2023-02-14T01:26:31.451Z,3.84
2023-02-14T01:29:03.426Z,3.92
2023-02-14T01:31:34.219Z,3.84
2023-02-14T01:34:03.230Z,3.55
2023-02-14T01:36:37.545Z,3.68
2023-02-14T01:39:08.685Z,4.16
2023-02-14T01:41:37.976Z,4.07
2023-02-14T01:44:29.215Z,3.80
2023-02-14T01:46:58.051Z,3.92
2023-02-14T01:49:39.861Z,4.11
2023-02-14T01:52:11.320Z,4.15
2023-02-14T01:54:43.444Z,4.31
2023-02-14T01:57:13.665Z,3.86
2023-02-14T01:59:46.516Z,4.24
2023-02-14T02:02:14.641Z,4.26
2023-02-14T02:04:45.948Z,4.28
2023-02-14T02:07:18.713Z,4.05
2023-02-14T02:10:01.518Z,4.17
2023-02-14T02:12:31.073Z,4.11
2023-02-14T02:14:59.999Z,4.25
2023-02-14T02:17:53.556Z,4.19
2023-02-14T02:20:58.404Z,3.79
2023-02-14T02:23:36.407Z,3.56
2023-02-14T02:26:39.116Z,3.70
2023-02-14T02:29:16.635Z,3.90
2023-02-14T02:31:47.428Z,3.86
2023-02-14T02:34:34.582Z,3.66
2023-02-14T02:37:30.063Z,3.79
2023-02-14T02:40:13.757Z,4.06
2023-02-14T02:43:00.742Z,3.83
2023-02-14T02:45:32.035Z,3.51
2023-02-14T02:48:10.662Z,3.98
2023-02-14T02:51:04.074Z,3.72
2023-02-14T02:53:40.298Z,3.86
2023-02-14T02:56:33.659Z,3.72
2023-02-14T02:59:06.918Z,3.72
2023-02-14T03:01:38.073Z,3.83
2023-02-14T03:04:27.621Z,3.55
2023-02-14T03:06:56.853Z,3.37
2023-02-14T03:09:28.300Z,3.39
2023-02-14T03:12:13.210Z,3.47
2023-02-14T03:14:50.600Z,3.67
2023-02-14T03:17:36.601Z,3.55
2023-02-14T03:20:52.500Z,3.61
2023-02-14T03:23:30.487Z,3.46
2023-02-14T03:26:11.015Z,3.73
2023-02-14T03:28:45.180Z,3.47
2023-02-14T03:31:20.661Z,3.59
2023-02-14T03:34:11.178Z,3.79
2023-02-14T03:37:12.170Z,3.80
2023-02-14T03:40:10.235Z,3.72
2023-02-14T03:42:52.517Z,3.48
2023-02-14T03:45:29.611Z,3.00
2023-02-14T03:48:01.064Z,3.42
2023-02-14T03:50:30.800Z,3.12
2023-02-14T03:52:59.694Z,3.53
2023-02-14T03:55:33.722Z,3.41
2023-02-14T03:58:08.520Z,3.38
2023-02-14T04:00:39.405Z,3.09
2023-02-14T04:03:15.009Z,3.40
2023-02-14T04:05:46.923Z,3.74
2023-02-14T04:08:25.206Z,3.38
2023-02-14T04:10:54.245Z,3.37
2023-02-14T04:13:22.874Z,3.38
2023-02-14T04:15:51.009Z,3.53
2023-02-14T04:18:37.878Z,3.38
2023-02-14T04:21:06.514Z,3.61
2023-02-14T04:23:34.656Z,3.16
2023-02-14T04:26:04.428Z,3.68
2023-02-14T04:28:32.845Z,3.43
2023-02-14T04:31:05.483Z,3.42
2023-02-14T04:33:34.535Z,3.26
2023-02-14T04:36:02.672Z,3.02
2023-02-14T04:38:32.601Z,3.50
2023-02-14T04:41:01.481Z,3.15
2023-02-14T04:43:29.977Z,3.33
2023-02-14T04:45:58.163Z,3.31
2023-02-14T04:48:26.694Z,3.01
2023-02-14T04:50:55.550Z,3.28
2023-02-14T04:53:23.683Z,3.41
2023-02-14T04:55:52.112Z,3.25
2023-02-14T04:58:20.307Z,3.10
2023-02-14T05:00:48.666Z,3.16
2023-02-14T05:03:17.262Z,3.19
2023-02-14T05:05:45.246Z,3.06
2023-02-14T05:08:14.701Z,3.33
2023-02-14T05:10:43.262Z,3.30
2023-02-14T05:13:11.382Z,3.46
2023-02-14T05:15:39.907Z,3.33
2023-02-14T05:18:08.272Z,3.03
2023-02-14T05:20:36.372Z,3.03
2023-02-14T05:23:05.485Z,3.01
2023-02-14T05:25:33.931Z,2.94
2023-02-14T05:28:01.960Z,3.30
2023-02-14T05:30:30.579Z,3.53
2023-02-14T05:32:59.179Z,3.15
2023-02-14T05:35:27.703Z,3.54
2023-02-14T05:37:56.307Z,3.67
2023-02-14T05:42:53.404Z,3.01
2023-02-14T05:45:21.510Z,3.24
2023-02-14T05:47:50.310Z,3.19
2023-02-14T05:50:18.828Z,3.56
2023-02-14T05:52:47.015Z,3.38
2023-02-14T05:55:15.521Z,3.29
2023-02-14T05:57:43.729Z,3.48
2023-02-14T06:00:12.781Z,3.05
2023-02-14T06:02:41.532Z,3.54
2023-02-14T06:05:09.889Z,3.18
2023-02-14T06:07:37.979Z,3.57
2023-02-14T06:10:10.108Z,3.51
2023-02-14T06:12:38.254Z,3.58
2023-02-14T06:15:07.104Z,3.86
2023-02-14T06:17:35.195Z,3.40
2023-02-14T06:20:03.598Z,3.72
2023-02-14T06:22:32.071Z,3.37
2023-02-14T06:25:00.180Z,3.87
2023-02-14T06:27:30.265Z,3.64
2023-02-14T06:29:58.904Z,4.05
2023-02-14T06:32:27.110Z,3.45
2023-02-14T06:34:55.118Z,4.24
2023-02-14T06:37:23.547Z,4.50
2023-02-14T06:39:51.688Z,4.49
2023-02-14T06:42:20.636Z,4.35
2023-02-14T06:44:49.089Z,4.14
2023-02-14T06:47:17.591Z,4.62
2023-02-14T06:49:45.687Z,4.52
2023-02-14T06:52:14.150Z,4.69
2023-02-14T06:54:42.297Z,4.59
2023-02-14T06:57:10.378Z,4.86
2023-02-14T06:59:38.820Z,5.21
2023-02-14T07:02:07.016Z,5.03
2023-02-14T07:04:35.134Z,4.70
2023-02-14T07:07:04.780Z,5.22
2023-02-14T07:09:32.858Z,5.49
2023-02-14T07:12:01.216Z,5.27
2023-02-14T07:14:29.639Z,5.31
2023-02-14T07:16:57.830Z,5.07
2023-02-14T07:19:26.016Z,5.31
2023-02-14T07:21:54.611Z,5.68
2023-02-14T07:24:22.949Z,5.85
2023-02-14T07:26:51.070Z,5.77
2023-02-14T07:29:21.019Z,6.30
2023-02-14T07:31:49.292Z,6.66
2023-02-14T07:34:19.036Z,6.85
2023-02-14T07:36:47.524Z,7.63
2023-02-14T07:39:15.695Z,7.52
2023-02-14T07:41:43.816Z,7.35
2023-02-14T07:44:12.279Z,7.47
2023-02-14T07:46:40.512Z,7.20
2023-02-14T07:49:09.975Z,7.38
2023-02-14T07:51:38.636Z,6.95
2023-02-14T07:54:06.657Z,6.84
2023-02-14T07:56:37.995Z,6.65
2023-02-14T07:59:06.365Z,7.13
2023-02-14T08:01:34.584Z,7.37
2023-02-14T08:04:03.198Z,6.76
2023-02-14T08:06:31.329Z,7.24
2023-02-14T08:08:59.577Z,7.15
2023-02-14T08:11:46.434Z,7.89
2023-02-14T08:14:14.494Z,7.94
2023-02-14T08:16:42.981Z,7.51
2023-02-14T08:19:11.211Z,7.93
2023-02-14T08:21:40.208Z,7.84
2023-02-14T08:24:08.756Z,7.87
2023-02-14T08:26:37.601Z,8.00
2023-02-14T08:29:06.934Z,8.55
2023-02-14T08:31:36.753Z,8.91
2023-02-14T08:34:05.655Z,8.75
2023-02-14T08:36:34.675Z,8.44
2023-02-14T08:39:07.317Z,8.70
2023-02-14T08:41:35.940Z,8.63
2023-02-14T08:44:04.498Z,7.72
2023-02-14T08:46:32.678Z,7.61
2023-02-14T08:49:00.896Z,7.56
2023-02-14T08:51:29.513Z,7.58
2023-02-14T08:53:59.659Z,7.93
2023-02-14T08:56:27.831Z,7.25
2023-02-14T08:58:56.378Z,7.87
2023-02-14T09:01:26.073Z,7.59
2023-02-14T09:03:54.237Z,7.58
2023-02-14T09:06:23.023Z,7.37
2023-02-14T09:08:52.062Z,7.50
2023-02-14T09:11:23.321Z,7.36
2023-02-14T09:13:53.579Z,7.83
2023-02-14T09:16:22.891Z,7.81
2023-02-14T09:18:52.996Z,7.33
2023-02-14T09:21:24.057Z,7.14
2023-02-14T09:23:52.923Z,7.62
2023-02-14T09:26:21.220Z,7.42
2023-02-14T09:28:51.061Z,7.58
2023-02-14T09:31:22.088Z,7.74
2023-02-14T09:34:11.189Z,7.55
2023-02-14T09:36:39.614Z,8.15
2023-02-14T09:39:07.689Z,8.10
2023-02-14T09:42:00.425Z,8.28
2023-02-14T09:44:56.070Z,8.68
2023-02-14T09:47:45.350Z,8.92
2023-02-14T09:50:34.831Z,9.48
2023-02-14T09:53:13.724Z,9.86
2023-02-14T09:55:59.255Z,9.86
2023-02-14T09:58:28.848Z,11.22
2023-02-14T10:01:07.130Z,10.50
2023-02-14T10:04:12.722Z,11.89
2023-02-14T10:06:51.102Z,11.97
2023-02-14T10:09:31.358Z,11.76
2023-02-14T10:12:00.458Z,12.40
2023-02-14T10:14:36.794Z,11.93
2023-02-14T10:17:15.750Z,10.86
2023-02-14T10:19:45.370Z,10.55
2023-02-14T10:22:16.661Z,10.89
2023-02-14T10:24:54.332Z,10.16
2023-02-14T10:27:30.520Z,10.24
2023-02-14T10:30:00.653Z,10.46
2023-02-14T10:32:28.837Z,10.78
2023-02-14T10:34:57.852Z,11.10
2023-02-14T10:37:45.131Z,11.03
2023-02-14T10:41:00.435Z,10.70
2023-02-14T10:43:41.101Z,10.09
2023-02-14T10:46:41.502Z,10.61
2023-02-14T10:49:17.543Z,10.66
2023-02-14T10:52:03.140Z,10.76
2023-02-14T10:54:43.882Z,10.85
2023-02-14T10:57:15.622Z,11.50
2023-02-14T10:59:55.145Z,11.37
2023-02-14T11:02:31.352Z,11.31
2023-02-14T11:05:03.133Z,11.24
2023-02-14T11:07:31.277Z,10.86
2023-02-14T11:10:00.156Z,11.49
2023-02-14T11:12:35.117Z,11.16
2023-02-14T11:15:19.180Z,10.92
2023-02-14T11:17:47.356Z,11.29
2023-02-14T11:20:31.109Z,11.45
2023-02-14T11:22:59.373Z,11.75
2023-02-14T11:25:30.135Z,12.25
2023-02-14T11:28:04.226Z,12.73
2023-02-14T11:30:36.507Z,14.52
2023-02-14T11:33:07.592Z,15.70
2023-02-14T11:35:39.191Z,16.98
2023-02-14T11:38:29.734Z,17.79
2023-02-14T11:41:03.191Z,18.03
2023-02-14T11:43:32.660Z,18.84
2023-02-14T11:46:21.457Z,19.18
2023-02-14T11:49:00.974Z,19.27
2023-02-14T11:51:42.179Z,17.15
2023-02-14T11:54:18.172Z,17.41
2023-02-14T11:56:53.234Z,14.95
2023-02-14T11:59:47.177Z,13.89
2023-02-14T12:02:21.507Z,14.23
2023-02-14T12:04:53.212Z,13.11
2023-02-14T12:07:37.102Z,11.82
2023-02-14T12:10:17.826Z,12.04
2023-02-14T12:12:54.678Z,12.78
2023-02-14T12:15:40.714Z,13.52
2023-02-14T12:18:33.535Z,12.56
2023-02-14T12:21:20.598Z,13.96
2023-02-14T12:23:59.644Z,14.25
2023-02-14T12:26:49.714Z,13.55
2023-02-14T12:29:40.998Z,13.13
2023-02-14T12:32:22.345Z,13.61
2023-02-14T12:34:51.904Z,13.13
2023-02-14T12:37:29.302Z,13.36
2023-02-14T12:40:06.849Z,13.07
2023-02-14T12:43:01.267Z,13.08
2023-02-14T12:45:50.948Z,13.33
2023-02-14T12:48:42.279Z,13.17
2023-02-14T12:51:29.066Z,12.54
2023-02-14T12:54:18.153Z,12.43
2023-02-14T12:57:24.036Z,11.74
2023-02-14T13:00:15.228Z,12.15
2023-02-14T13:03:12.291Z,12.10
2023-02-14T13:05:43.685Z,11.79
2023-02-14T13:08:24.243Z,11.81
2023-02-14T13:11:07.625Z,11.48
2023-02-14T13:14:06.835Z,11.89
2023-02-14T13:16:54.795Z,11.18
2023-02-14T13:19:25.967Z,11.19
2023-02-14T13:21:54.866Z,10.02
2023-02-14T13:24:29.656Z,10.52
2023-02-14T13:27:01.138Z,9.97
2023-02-14T13:29:35.403Z,10.47
2023-02-14T13:32:05.202Z,10.78
2023-02-14T13:34:42.196Z,10.10
2023-02-14T13:37:12.596Z,9.78
2023-02-14T13:40:22.273Z,10.29
2023-02-14T13:42:58.903Z,10.73
2023-02-14T13:45:33.273Z,11.30
2023-02-14T13:48:18.643Z,11.80
2023-02-14T13:51:01.929Z,11.26
2023-02-14T13:53:45.586Z,10.59
2023-02-14T13:56:13.674Z,11.05
2023-02-14T13:58:51.263Z,11.24
2023-02-14T14:01:41.288Z,11.39
2023-02-14T14:04:28.322Z,10.60
2023-02-14T14:07:05.111Z,10.65
2023-02-14T14:09:42.830Z,10.60
2023-02-14T14:12:42.189Z,10.37
2023-02-14T14:15:16.773Z,11.12
2023-02-14T14:18:12.951Z,11.48
2023-02-14T14:20:52.729Z,11.49
2023-02-14T14:23:35.277Z,11.45
2023-02-14T14:26:30.700Z,11.32
2023-02-14T14:29:01.259Z,11.68
2023-02-14T14:31:30.115Z,10.95
2023-02-14T14:34:01.644Z,11.09
2023-02-14T14:36:30.047Z,11.11
2023-02-14T14:38:58.173Z,11.20
2023-02-14T14:41:31.510Z,10.88
2023-02-14T14:44:00.422Z,10.62
2023-02-14T14:46:28.742Z,10.86
2023-02-14T14:48:57.464Z,10.42
2023-02-14T14:51:32.378Z,10.32
2023-02-14T14:54:00.895Z,10.14
2023-02-14T14:56:53.364Z,9.91
2023-02-14T14:59:41.431Z,9.96
2023-02-14T15:02:26.943Z,9.96
2023-02-14T15:04:55.184Z,10.22
2023-02-14T15:07:30.617Z,9.51
2023-02-14T15:09:58.980Z,9.30
2023-02-14T15:12:46.534Z,9.68
2023-02-14T15:15:19.531Z,9.22
2023-02-14T15:17:48.045Z,9.02
2023-02-14T15:20:21.352Z,9.00
2023-02-14T15:22:51.698Z,9.48
2023-02-14T15:25:22.374Z,8.69
2023-02-14T15:27:51.053Z,9.15
2023-02-14T15:30:26.964Z,9.35
2023-02-14T15:32:56.007Z,9.16
2023-02-14T15:35:28.293Z,8.88
2023-02-14T15:38:01.654Z,8.30
2023-02-14T15:40:34.409Z,8.20
2023-02-14T15:43:23.355Z,7.57
2023-02-14T15:45:53.555Z,8.04
2023-02-14T15:48:29.701Z,7.58
2023-02-14T15:51:01.871Z,7.82
2023-02-14T15:53:49.223Z,7.16
2023-02-14T15:56:26.813Z,7.13
2023-02-14T15:59:07.772Z,6.24
2023-02-14T16:01:36.379Z,6.21
2023-02-14T16:04:06.657Z,7.26
2023-02-14T16:06:34.767Z,7.18
2023-02-14T16:09:05.208Z,6.63
2023-02-14T16:11:38.781Z,6.33
2023-02-14T16:14:35.532Z,6.40
2023-02-14T16:17:12.554Z,5.69
2023-02-14T16:19:47.398Z,5.58
2023-02-14T16:22:32.462Z,5.31
2023-02-14T16:25:01.140Z,5.37
2023-02-14T16:27:33.344Z,5.37
2023-02-14T16:30:01.534Z,4.83
2023-02-14T16:32:30.918Z,4.09
2023-02-14T16:35:00.629Z,4.74
2023-02-14T16:37:31.302Z,5.04
2023-02-14T16:40:01.396Z,5.02
2023-02-14T16:42:31.443Z,5.77
2023-02-14T16:45:02.588Z,5.94
2023-02-14T16:47:30.802Z,6.00
2023-02-14T16:49:58.934Z,5.99
2023-02-14T16:52:28.722Z,6.21
2023-02-14T16:54:59.434Z,6.33
2023-02-14T16:57:39.815Z,6.16
2023-02-14T17:00:09.818Z,6.45
2023-02-14T17:02:38.863Z,6.26
2023-02-14T17:05:08.624Z,6.35
2023-02-14T17:07:38.413Z,6.31
2023-02-14T17:10:10.276Z,6.57
2023-02-14T17:12:42.372Z,6.07
2023-02-14T17:15:15.463Z,5.78
2023-02-14T17:17:44.631Z,6.18
2023-02-14T17:20:16.319Z,6.41
2023-02-14T17:22:44.838Z,6.34
2023-02-14T17:25:14.386Z,6.64
2023-02-14T17:27:44.683Z,6.43
2023-02-14T17:30:16.537Z,5.77
2023-02-14T17:32:44.962Z,6.31
2023-02-14T17:35:14.737Z,6.07
2023-02-14T17:37:42.895Z,5.93
2023-02-14T17:40:12.179Z,6.22
2023-02-14T17:42:40.217Z,6.39
2023-02-14T17:45:11.980Z,6.03
2023-02-14T17:47:43.568Z,5.89
2023-02-14T17:50:13.302Z,6.49
2023-02-14T17:52:42.310Z,5.54
2023-02-14T17:55:10.972Z,5.40
2023-02-14T17:57:41.200Z,5.33
2023-02-14T18:00:11.878Z,5.84
2023-02-14T18:02:40.969Z,5.30
2023-02-14T18:05:09.379Z,5.19
2023-02-14T18:07:38.397Z,5.08
2023-02-14T18:10:07.107Z,5.11
2023-02-14T18:12:35.575Z,4.78
2023-02-14T18:15:03.816Z,4.32
2023-02-14T18:17:31.861Z,4.75
2023-02-14T18:20:00.382Z,4.59
2023-02-14T18:22:28.682Z,4.58
2023-02-14T18:24:58.913Z,4.71
2023-02-14T18:27:27.338Z,4.23
2023-02-14T18:30:04.387Z,3.96
2023-02-14T18:32:32.864Z,3.92
2023-02-14T18:35:02.486Z,4.22
2023-02-14T18:37:30.549Z,4.19
2023-02-14T18:39:58.825Z,3.92
2023-02-14T18:42:26.880Z,4.09
2023-02-14T18:44:54.932Z,3.51
2023-02-14T18:47:25.450Z,3.77
2023-02-14T18:49:59.640Z,3.28
2023-02-14T18:52:28.134Z,3.29
2023-02-14T18:54:58.723Z,2.75
2023-02-14T18:57:26.899Z,2.80
2023-02-14T18:59:55.323Z,2.69
2023-02-14T19:02:23.456Z,2.82
2023-02-14T19:04:51.626Z,2.55
2023-02-14T19:07:19.978Z,2.76
2023-02-14T19:09:48.010Z,2.68
2023-02-14T19:12:16.203Z,2.50
2023-02-14T19:14:44.838Z,2.58
2023-02-14T19:17:13.319Z,2.50
2023-02-14T19:19:41.520Z,2.44
2023-02-14T19:22:09.917Z,2.40
2023-02-14T19:24:38.125Z,2.59
2023-02-14T19:27:06.179Z,3.30
2023-02-14T19:29:34.685Z,3.02
2023-02-14T19:32:02.981Z,2.52
2023-02-14T19:34:31.697Z,2.47
2023-02-14T19:37:02.557Z,2.63
2023-02-14T19:39:31.293Z,2.44
2023-02-14T19:42:00.439Z,2.33
2023-02-14T19:44:29.592Z,2.37
2023-02-14T19:47:00.332Z,2.52
2023-02-14T19:49:29.481Z,2.31
2023-02-14T19:51:59.032Z,2.20
2023-02-14T19:54:27.493Z,2.34
2023-02-14T19:56:56.671Z,2.34
2023-02-14T19:59:24.881Z,2.37
2023-02-14T20:01:54.301Z,1.82
2023-02-14T20:04:25.234Z,2.00
2023-02-14T20:06:53.986Z,1.88
2023-02-14T20:09:23.090Z,2.39
2023-02-14T20:11:55.814Z,2.01
2023-02-14T20:14:30.507Z,2.14
2023-02-14T20:17:00.148Z,2.39
2023-02-14T20:19:32.674Z,2.23
2023-02-14T20:22:01.273Z,2.39
2023-02-14T20:24:31.841Z,2.47
2023-02-14T20:27:00.761Z,2.45
2023-02-14T20:29:29.536Z,2.55
2023-02-14T20:32:00.238Z,2.37
2023-02-14T20:34:28.464Z,2.21
2023-02-14T20:36:58.783Z,2.43
2023-02-14T20:39:32.367Z,2.56
2023-02-14T20:42:01.018Z,2.65
2023-02-14T20:44:30.231Z,3.07
2023-02-14T20:46:58.606Z,3.08
2023-02-14T20:49:28.372Z,3.07
2023-02-14T20:51:57.286Z,2.69
2023-02-14T20:54:27.124Z,2.67
2023-02-14T20:56:55.783Z,2.74
2023-02-14T20:59:27.384Z,2.79
2023-02-14T21:01:57.229Z,2.88
2023-02-14T21:04:26.025Z,3.03
2023-02-14T21:06:54.797Z,3.20
2023-02-14T21:09:22.863Z,3.40
2023-02-14T21:11:54.064Z,3.45
2023-02-14T21:14:22.365Z,3.40
2023-02-14T21:16:50.594Z,3.52
2023-02-14T21:19:19.440Z,3.33
2023-02-14T21:21:47.600Z,3.43
2023-02-14T21:24:16.644Z,3.86
2023-02-14T21:26:45.227Z,3.76
2023-02-14T21:29:13.366Z,3.53
2023-02-14T21:31:42.621Z,3.48
2023-02-14T21:34:11.164Z,3.23
2023-02-14T21:36:39.240Z,3.14
2023-02-14T21:39:07.481Z,3.04
2023-02-14T21:41:36.522Z,2.90
2023-02-14T21:44:05.399Z,3.61
2023-02-14T21:46:37.068Z,2.90
2023-02-14T21:49:25.070Z,2.18
2023-02-14T21:51:53.340Z,3.06
2023-02-14T21:54:21.760Z,2.42
2023-02-14T21:56:50.068Z,2.31
2023-02-14T21:59:18.215Z,2.76
2023-02-14T22:01:46.661Z,2.69
2023-02-14T22:04:15.404Z,2.49
2023-02-14T22:06:43.571Z,2.14
2023-02-14T22:09:14.266Z,1.98
2023-02-14T22:11:42.920Z,2.47
2023-02-14T22:14:11.284Z,2.60
2023-02-14T22:16:39.534Z,2.18
2023-02-14T22:19:09.154Z,1.75
2023-02-14T22:21:37.180Z,1.95
2023-02-14T22:24:05.498Z,1.56
2023-02-14T22:26:38.900Z,2.21
2023-02-14T22:29:09.619Z,1.60
2023-02-14T22:31:40.938Z,1.33
2023-02-14T22:34:12.152Z,1.61
2023-02-14T22:36:40.724Z,1.54
2023-02-14T22:39:09.720Z,1.55
2023-02-14T22:41:38.145Z,1.96
2023-02-14T22:44:07.094Z,1.67
2023-02-14T22:46:38.623Z,1.72
2023-02-14T22:49:07.639Z,2.55
2023-02-14T22:51:38.373Z,2.02
2023-02-14T22:54:12.671Z,2.31
2023-02-14T22:56:45.543Z,2.38
2023-02-14T22:59:24.035Z,1.95
2023-02-14T23:01:53.012Z,1.83
2023-02-14T23:04:24.676Z,1.70
2023-02-14T23:06:53.451Z,1.75
2023-02-14T23:09:22.781Z,1.15
2023-02-14T23:11:51.283Z,0.98
2023-02-14T23:14:38.200Z,1.59
2023-02-14T23:17:25.882Z,1.25
2023-02-14T23:20:12.454Z,1.19
2023-02-14T23:22:41.304Z,1.67
2023-02-14T23:25:11.129Z,1.36
2023-02-14T23:27:41.803Z,1.00
2023-02-14T23:30:13.291Z,0.79
2023-02-14T23:32:41.678Z,1.60
2023-02-14T23:35:10.627Z,1.29
2023-02-14T23:37:38.642Z,1.55
2023-02-14T23:40:07.905Z,0.94
2023-02-14T23:42:36.457Z,0.90
2023-02-14T23:45:23.445Z,1.44
2023-02-14T23:47:51.930Z,1.32
2023-02-14T23:50:20.027Z,0.87
2023-02-14T23:52:48.278Z,1.19
2023-02-14T23:55:16.776Z,1.02
2023-02-14T23:57:44.857Z,0.74
